Concord Municipal Airport Concord US
ICAO: KCON
IATA: CON
Category: Medium
Scheduled Services: No

Elevation: 342 ft
TransAlt. 18000 ft.

Airport Communications:
BOSTON APP/DEP:127.35
ASOS:132.32
CLNC DEL:133.65
ARNG OPS:32.1
BANGOR RDO:122.3
CTAF/UNICOM:122.7

KCON Zoom In..

Runways:

(A) RW 12 length 3200 ft width 75 ft
---- / hdg 121

(B) RW 17 length 6005 ft width 100 ft
---- / hdg 171

(C) RW 30 length 3200 ft width 75 ft
---- / hdg 301

(D) RW 35 length 6005 ft width 100 ft
ILS 108.70 / hdg 351

Location; KCON
Day. 14 / Time. 13.51 Zulu
* Altimeter: 29.93
* Temperature: 22° c. 71.6°f.
* Wind from: 180° Speed 03 kn.
Dewpoint: 21° c.
Visibility: 5 Statute Miles.
Clouds: Overcast 500 ft.
Conditions: Light Rain.Conditions: Mist.

KCON 141351Z AUTO 18003KT 5SM -RA BR OVC005 22/21 A2993 RMK AO2 RAB49 SLP134 P0000 T02170211


Wind From 180°
Speed 03 kn.

 
 
jpsmedia.com for Web Design worldairports.se 2018   terms of use